Bookmark and Share
Track history (hours):
 

Aegean Princess

Last reported at 2014-Apr-19 06:33 UTC. Time now 2014-Apr-19 07:08 UTC.
Position N 36°09' W 005°22'.

Length 100 m; draft 5.4 m.

Type: Ship. MMSI: 236111476.

NotesDate/timePositionNaut miles runAvg speedWind from/ knotsBaromVisibWave heightAir tempDewpointWater temp
2014-Apr-19 06:33N 36°09' W 005°22'0 0.1
2014-Apr-19 05:33N 36°09' W 005°22'3 3.1
2014-Apr-19 04:33N 36°06' W 005°22'3 3.0
2014-Apr-19 03:33N 36°08' W 005°18'0 0.1
2014-Apr-19 02:33N 36°08' W 005°19'0 0.0
2014-Apr-19 01:30N 36°08' W 005°18'0 0.0
2014-Apr-19 00:33N 36°08' W 005°18'0 0.1
2014-Apr-18 23:33N 36°08' W 005°18'0 0.1
2014-Apr-18 22:33N 36°08' W 005°18'0 0.1
2014-Apr-18 21:33N 36°08' W 005°18'0 0.0
2014-Apr-18 20:33N 36°08' W 005°18'3 2.8
2014-Apr-18 19:33N 36°06' W 005°21'1 1.4
2014-Apr-18 18:33N 36°07' W 005°21'0 0.1
2014-Apr-18 17:33N 36°07' W 005°21'0 0.1
2014-Apr-18 16:33N 36°07' W 005°21'1 0.8
2014-Apr-18 15:33N 36°06' W 005°22'3 2.8
2014-Apr-18 14:31N 36°07' W 005°18'0 0.0
2014-Apr-18 13:28N 36°07' W 005°18'0 0.1
2014-Apr-18 12:31N 36°07' W 005°18'0 0.1
2014-Apr-18 11:31N 36°07' W 005°18'0 0.0
2014-Apr-18 10:31N 36°07' W 005°18'0 0.1
2014-Apr-18 09:31N 36°07' W 005°19'0 0.0
2014-Apr-18 08:31N 36°07' W 005°19'3 3.3
2014-Apr-18 07:33N 36°05' W 005°22'2 1.9
2014-Apr-18 06:29N 36°07' W 005°22'0 0.0
2014-Apr-18 05:32N 36°07' W 005°22'0 0.1
2014-Apr-18 04:32N 36°07' W 005°22'0 0.2
2014-Apr-18 03:32N 36°07' W 005°22'0 0.1
2014-Apr-18 02:32N 36°08' W 005°22'0 0.1
2014-Apr-18 01:32N 36°08' W 005°22'0 0.0
2014-Apr-18 00:32N 36°08' W 005°22'0 0.2
2014-Apr-17 23:26N 36°08' W 005°22'0 0.3
2014-Apr-17 22:32N 36°07' W 005°22'0 0.1
2014-Apr-17 21:32N 36°07' W 005°22'0 0.1
2014-Apr-17 20:32N 36°07' W 005°22'0 0.1
2014-Apr-17 19:32N 36°07' W 005°22'0 0.1
2014-Apr-17 18:32N 36°07' W 005°22'0 0.3
2014-Apr-17 17:32N 36°08' W 005°22'0 0.1
2014-Apr-17 16:32N 36°08' W 005°23'0 0.2
2014-Apr-17 15:31N 36°08' W 005°22'0 0.1
2014-Apr-17 14:31N 36°08' W 005°22'0 0.1
2014-Apr-17 13:31N 36°08' W 005°22'0 0.1
2014-Apr-17 12:31N 36°08' W 005°23'0 0.2
2014-Apr-17 11:28N 36°07' W 005°23'2 1.9
2014-Apr-17 10:31N 36°09' W 005°22'0 0.0
2014-Apr-17 09:31N 36°09' W 005°22'0 0.0
2014-Apr-17 08:31N 36°09' W 005°22'0 0.0
2014-Apr-17 07:31N 36°09' W 005°22'0 0.1
2014-Apr-17 06:31N 36°09' W 005°22'0 0.0
2014-Apr-17 05:31N 36°09' W 005°22'0 0.0
2014-Apr-17 04:28N 36°09' W 005°22'0 0.0
2014-Apr-17 03:31N 36°09' W 005°22'0 0.0
2014-Apr-17 02:31N 36°09' W 005°22'0 0.0
2014-Apr-17 01:31N 36°09' W 005°22'0 0.0
2014-Apr-17 00:31N 36°09' W 005°22'0 0.0
2014-Apr-16 23:28N 36°09' W 005°22'1 1.5
2014-Apr-16 22:33N 36°08' W 005°22'0 0.2
2014-Apr-16 21:32N 36°08' W 005°22'0 0.1
2014-Apr-16 20:32N 36°08' W 005°22'0 0.0
2014-Apr-16 19:32N 36°08' W 005°22'0 0.0
2014-Apr-16 18:29N 36°08' W 005°22'2 1.6
2014-Apr-16 17:32N 36°09' W 005°22'0 0.0
2014-Apr-16 16:32N 36°09' W 005°22'0 0.0
2014-Apr-16 15:32N 36°09' W 005°22'0 0.0
2014-Apr-16 14:32N 36°09' W 005°22'0 0.2
2014-Apr-16 13:32N 36°09' W 005°22'0 0.0
2014-Apr-16 12:32N 36°09' W 005°23'2 2.2
2014-Apr-16 11:34N 36°07' W 005°22'0 0.5
2014-Apr-16 10:30N 36°07' W 005°22'0 0.1
2014-Apr-16 09:33N 36°07' W 005°22'0 0.2
2014-Apr-16 08:33N 36°07' W 005°22'0 0.0
2014-Apr-16 07:33N 36°07' W 005°22'0 0.0
2014-Apr-16 06:33N 36°07' W 005°22'0 0.0
2014-Apr-16 05:33N 36°07' W 005°22'0 0.0
2014-Apr-16 04:33N 36°07' W 005°22'2 2.0
2014-Apr-16 03:27N 36°09' W 005°22'1 1.0
2014-Apr-16 02:32N 36°09' W 005°23'6 5.8
2014-Apr-16 01:34N 36°03' W 005°22'9 8.8
2014-Apr-16 00:34N 35°56' W 005°28'3 0.4
2014-Apr-15 17:33N 35°54' W 005°30'6 6.4
2014-Apr-15 16:34N 35°59' W 005°27'7 7.1
2014-Apr-15 15:33N 36°06' W 005°23'3 3.5
2014-Apr-15 14:34N 36°09' W 005°22'0 0.0
2014-Apr-15 12:34N 36°09' W 005°22'0 0.0
2014-Apr-15 11:34N 36°09' W 005°22'0 0.0
2014-Apr-15 10:34N 36°09' W 005°22'0 0.0
2014-Apr-15 06:34N 36°09' W 005°22'0 0.1
2014-Apr-15 05:34N 36°09' W 005°22'0 0.0
2014-Apr-15 03:33N 36°09' W 005°22'0 0.0
2014-Apr-15 02:33N 36°09' W 005°22'0 0.0
2014-Apr-15 01:33N 36°09' W 005°22'0 0.0
2014-Apr-15 00:30N 36°09' W 005°22'0 0.0
2014-Apr-14 23:33N 36°09' W 005°22'0 0.0
2014-Apr-14 22:33N 36°09' W 005°22'0 0.1
2014-Apr-14 21:33N 36°09' W 005°22'0 0.0
2014-Apr-14 20:33N 36°09' W 005°22'0 0.0
2014-Apr-14 19:33N 36°09' W 005°22'0 0.0
2014-Apr-14 18:33N 36°09' W 005°22'0 0.0
2014-Apr-14 17:33N 36°09' W 005°22'0 0.0
2014-Apr-14 16:33N 36°09' W 005°22'0 0.1
2014-Apr-14 15:33N 36°09' W 005°22'0 0.0
2014-Apr-14 14:33N 36°09' W 005°22'0 0.0
2014-Apr-14 13:33N 36°09' W 005°22'0 0.0
2014-Apr-14 11:33N 36°09' W 005°22'0 0.0
2014-Apr-14 10:33N 36°09' W 005°22'0 0.1
2014-Apr-14 09:33N 36°09' W 005°22'0 0.0
2014-Apr-14 08:30N 36°09' W 005°22'0 0.0
2014-Apr-14 07:30N 36°09' W 005°22'0 0.0
2014-Apr-14 06:32N 36°09' W 005°22'0 0.0
2014-Apr-14 05:32N 36°09' W 005°22'0 0.0
2014-Apr-13 22:32N 36°09' W 005°22'0 0.0
2014-Apr-13 21:32N 36°09' W 005°22'0 0.0
2014-Apr-13 20:32N 36°09' W 005°22'0 0.0
2014-Apr-13 19:29N 36°09' W 005°22'0 0.0
2014-Apr-13 18:32N 36°09' W 005°22'0 0.0
2014-Apr-13 17:32N 36°09' W 005°22'0 0.0
2014-Apr-13 16:32N 36°09' W 005°22'0 0.0
2014-Apr-13 15:32N 36°09' W 005°22'0 0.0
2014-Apr-13 14:32N 36°09' W 005°22'0 0.0
2014-Apr-13 13:32N 36°09' W 005°22'0 0.0
2014-Apr-13 12:32N 36°09' W 005°22'0 0.0
2014-Apr-13 11:26N 36°09' W 005°22'0 0.0
2014-Apr-13 10:32N 36°09' W 005°22'0 0.0
2014-Apr-13 09:32N 36°09' W 005°22'0 0.1
2014-Apr-13 08:29N 36°09' W 005°22'0 0.1
2014-Apr-13 07:29N 36°09' W 005°22'0 0.0
2014-Apr-13 06:32N 36°09' W 005°22'0 0.0
2014-Apr-13 05:29N 36°09' W 005°22'0 0.1
2014-Apr-13 04:23N 36°09' W 005°22'0 0.1
2014-Apr-13 03:31N 36°09' W 005°22'0 0.0
2014-Apr-13 02:31N 36°09' W 005°22'0 0.0
2014-Apr-13 01:31N 36°09' W 005°22'0 0.0
2014-Apr-13 00:31N 36°09' W 005°22'0 0.1
2014-Apr-12 23:31N 36°09' W 005°22'0 0.0
2014-Apr-12 22:25N 36°09' W 005°22'0 0.0
2014-Apr-12 21:28N 36°09' W 005°22'0 0.0
2014-Apr-12 20:31N 36°09' W 005°22'0 0.0
2014-Apr-12 19:31N 36°09' W 005°22'0 0.0
2014-Apr-12 18:28N 36°09' W 005°22'0 0.0
2014-Apr-12 17:31N 36°09' W 005°22'0 0.0
2014-Apr-12 16:25N 36°09' W 005°22'0 0.0
2014-Apr-12 15:25N 36°09' W 005°22'0 0.0
2014-Apr-12 14:25N 36°09' W 005°22'0 0.0
2014-Apr-12 13:31N 36°09' W 005°22'0 0.0
2014-Apr-12 12:31N 36°09' W 005°22'0 0.0
2014-Apr-12 11:31N 36°09' W 005°22'0 0.0
2014-Apr-12 10:16N 36°09' W 005°22'0 0.0
2014-Apr-12 09:25N 36°09' W 005°22'0 0.0
2014-Apr-12 08:28N 36°09' W 005°22'0 0.0
2014-Apr-12 07:31N 36°09' W 005°22'0 0.0
2014-Apr-12 06:22N 36°09' W 005°22'0 0.0
2014-Apr-12 05:16N 36°09' W 005°22'0 0.0
2014-Apr-12 04:34N 36°09' W 005°22'0 0.0
2014-Apr-12 03:34N 36°09' W 005°22'0 0.0
2014-Apr-12 02:30N 36°09' W 005°22'0 0.0
2014-Apr-12 01:33N 36°09' W 005°22'0 0.2
2014-Apr-12 00:33N 36°09' W 005°22'0 0.0
2014-Apr-11 23:33N 36°09' W 005°22'0 0.1
2014-Apr-11 22:33N 36°09' W 005°22'1 0.9
2014-Apr-11 21:33N 36°09' W 005°22'1 0.7
2014-Apr-11 20:33N 36°08' W 005°23'0 0.2
2014-Apr-11 19:31N 36°08' W 005°23'0 0.1
2014-Apr-11 18:31N 36°08' W 005°23'3 2.7
2014-Apr-11 17:33N 36°06' W 005°21'3 2.9
2014-Apr-11 16:32N 36°07' W 005°18'0 0.0
2014-Apr-11 15:32N 36°07' W 005°18'0 0.1
2014-Apr-11 14:32N 36°08' W 005°18'2 2.2
2014-Apr-11 13:33N 36°06' W 005°20'4 4.2
2014-Apr-11 12:33N 36°09' W 005°23'0 0.2
2014-Apr-11 11:33N 36°09' W 005°23'0 0.0
2014-Apr-11 10:33N 36°09' W 005°23'0 0.1
2014-Apr-11 09:33N 36°09' W 005°23'0 0.0
2014-Apr-11 08:33N 36°09' W 005°23'0 0.0
2014-Apr-11 07:33N 36°09' W 005°23'0 0.1
2014-Apr-11 06:33N 36°09' W 005°23'0 0.0
2014-Apr-11 05:33N 36°09' W 005°23'0 0.0
2014-Apr-11 04:33N 36°09' W 005°23'0 0.1
2014-Apr-11 03:33N 36°09' W 005°23'0 0.0
2014-Apr-11 02:33N 36°09' W 005°23'0 0.0
2014-Apr-11 01:33N 36°09' W 005°23'0 0.0
2014-Apr-11 00:33N 36°09' W 005°23'0 0.0
2014-Apr-10 23:33N 36°09' W 005°23'0 0.0
2014-Apr-10 22:33N 36°09' W 005°23'0 0.1
2014-Apr-10 21:33N 36°09' W 005°23'0 0.0
2014-Apr-10 20:33N 36°09' W 005°23'0 0.0
2014-Apr-10 19:33N 36°09' W 005°23'0 0.0
2014-Apr-10 18:33N 36°09' W 005°23'0 0.0
2014-Apr-10 17:33N 36°09' W 005°23'0 0.1
2014-Apr-10 16:33N 36°09' W 005°23'0 0.1
2014-Apr-10 15:33N 36°09' W 005°23'0 0.0
2014-Apr-10 14:33N 36°09' W 005°23'0 0.0
2014-Apr-10 13:33N 36°09' W 005°23'0 0.0
2014-Apr-10 12:33N 36°09' W 005°23'0 0.0
2014-Apr-10 11:33N 36°09' W 005°23'0 0.0
2014-Apr-10 10:33N 36°09' W 005°23'0 0.0
2014-Apr-10 09:33N 36°09' W 005°23'0 0.0
2014-Apr-10 08:33N 36°09' W 005°23'0 0.0
2014-Apr-10 07:33N 36°09' W 005°23'0 0.0
2014-Apr-10 06:33N 36°09' W 005°23'0 0.0
2014-Apr-10 05:33N 36°09' W 005°23'0 0.0
2014-Apr-10 04:33N 36°09' W 005°23'0 0.0
2014-Apr-10 03:33N 36°09' W 005°23'0 0.3
2014-Apr-10 02:33N 36°09' W 005°23'2 2.1
2014-Apr-10 01:33N 36°07' W 005°22'0 0.1
2014-Apr-10 00:33N 36°07' W 005°22'0 0.1
2014-Apr-09 23:33N 36°07' W 005°22'2 1.9
2014-Apr-09 22:31N 36°09' W 005°22'0 0.0
2014-Apr-09 21:31N 36°09' W 005°22'0 0.0
2014-Apr-09 20:31N 36°09' W 005°22'0 0.0
2014-Apr-09 19:31N 36°09' W 005°22'0 0.0
2014-Apr-09 18:28N 36°09' W 005°22'0 0.0
2014-Apr-09 17:31N 36°09' W 005°22'0 0.0
2014-Apr-09 16:31N 36°09' W 005°22'0 0.0
2014-Apr-09 15:31N 36°09' W 005°22'0 0.0
2014-Apr-09 14:31N 36°09' W 005°22'0 0.0
2014-Apr-09 13:31N 36°09' W 005°22'0 0.0
2014-Apr-09 12:31N 36°09' W 005°22'0 0.0
2014-Apr-09 11:34N 36°09' W 005°22'0 0.0
2014-Apr-09 10:33N 36°09' W 005°22'0 0.0
2014-Apr-09 09:33N 36°09' W 005°22'0 0.0
2014-Apr-09 08:33N 36°09' W 005°22'0 0.0
2014-Apr-09 07:33N 36°09' W 005°22'0 0.0
2014-Apr-09 06:33N 36°09' W 005°22'  

Dump ship's entire track history

sailing weather and tide predictions

Aegean Princess — ZDID9 — position and weather